Time;durP1;ratioP1;P1;durP2;ratioP2;P2;SDS_P1;SDS_P2;PMS_P1;PMS_P2;Temp;Humidity;BMP_temperature;BMP_pressure;BME280_temperature;BME280_humidity;BME280_pressure;Samples;Min_cycle;Max_cycle;Signal;HPM_P1;HPM_P2
2022/10/06 00:00:52;;;;;;;7.85;7.05;;;;;;;;;;12977986;22;20496;-75
2022/10/06 00:05:57;;;;;;;7.68;6.25;;;;;;;;;;12952162;22;20023;-76
2022/10/06 00:10:57;;;;;;;7.32;6.20;;;;;;;;;;12977991;22;20046;-75
2022/10/06 00:15:58;;;;;;;8.40;6.55;;;;;;;;;;12951619;22;20062;-76
2022/10/06 00:21:00;;;;;;;6.13;5.53;;;;;;;;;;12980716;22;20043;-75
2022/10/06 00:26:00;;;;;;;6.07;5.47;;;;;;;;;;12981005;22;20011;-76
2022/10/06 00:31:01;;;;;;;6.68;5.50;;;;;;;;;;12925932;22;20344;-76
2022/10/06 00:36:02;;;;;;;6.57;5.88;;;;;;;;;;12925097;22;20014;-76
2022/10/06 00:41:03;;;;;;;6.43;5.55;;;;;;;;;;12950357;22;20043;-76
2022/10/06 00:46:03;;;;;;;7.55;5.53;;;;;;;;;;12925711;22;20015;-77
2022/10/06 00:51:05;;;;;;;6.75;5.45;;;;;;;;;;12950299;22;20411;-75
2022/10/06 00:56:07;;;;;;;6.60;4.90;;;;;;;;;;12924347;22;20043;-75
2022/10/06 01:01:09;;;;;;;4.95;4.45;;;;;;;;;;12976669;22;20026;-74
2022/10/06 01:06:10;;;;;;;6.68;4.90;;;;;;;;;;12977983;22;20022;-77
2022/10/06 01:11:14;;;;;;;5.78;5.13;;;;;;;;;;12977793;22;20552;-76
2022/10/06 01:16:18;;;;;;;5.85;4.85;;;;;;;;;;12977559;22;20110;-75
2022/10/06 01:21:37;;;;;;;6.55;4.88;;;;;;;;;;12977798;22;20091;-75
2022/10/06 01:26:40;;;;;;;5.30;4.80;;;;;;;;;;12960797;22;20089;-75
2022/10/06 01:31:41;;;;;;;5.40;4.78;;;;;;;;;;12984671;22;20578;-77
2022/10/06 01:36:43;;;;;;;5.55;4.35;;;;;;;;;;12930911;22;20030;-76
2022/10/06 01:41:46;;;;;;;6.40;4.82;;;;;;;;;;12989999;22;20020;-75
2022/10/06 01:46:48;;;;;;;5.30;4.80;;;;;;;;;;13017135;22;20016;-77
2022/10/06 01:51:50;;;;;;;7.00;4.90;;;;;;;;;;12971594;22;20412;-76
2022/10/06 01:56:50;;;;;;;5.53;4.82;;;;;;;;;;12951416;22;20023;-76
2022/10/06 02:01:53;;;;;;;5.90;5.32;;;;;;;;;;12949209;22;20047;-76
2022/10/06 02:06:54;;;;;;;5.28;4.60;;;;;;;;;;12948997;22;20452;-76
2022/10/06 02:11:55;;;;;;;6.38;4.82;;;;;;;;;;12949129;22;20016;-76
2022/10/06 02:16:55;;;;;;;6.55;5.00;;;;;;;;;;12949403;22;20043;-77
2022/10/06 02:21:57;;;;;;;5.03;4.53;;;;;;;;;;12950092;22;20460;-76
2022/10/06 02:26:58;;;;;;;5.03;4.45;;;;;;;;;;12971650;22;20091;-77
2022/10/06 02:31:59;;;;;;;5.07;4.57;;;;;;;;;;12930036;22;20032;-77
2022/10/06 02:36:59;;;;;;;4.97;4.47;;;;;;;;;;12955390;22;20026;-77
2022/10/06 02:42:00;;;;;;;5.72;3.95;;;;;;;;;;12929430;22;20094;-78
2022/10/06 02:47:01;;;;;;;4.70;4.15;;;;;;;;;;12953912;22;20008;-78
2022/10/06 02:52:01;;;;;;;5.95;4.13;;;;;;;;;;12956866;22;20011;-78
2022/10/06 02:57:02;;;;;;;5.72;4.18;;;;;;;;;;12956472;22;20028;-78
2022/10/06 03:02:02;;;;;;;6.95;4.97;;;;;;;;;;12956343;22;20042;-76
2022/10/06 03:07:03;;;;;;;4.22;3.83;;;;;;;;;;12980803;22;20004;-77
2022/10/06 03:12:08;;;;;;;5.70;3.88;;;;;;;;;;12953128;22;20020;-77
2022/10/06 03:17:13;;;;;;;4.45;4.05;;;;;;;;;;12928039;22;20133;-77
2022/10/06 03:22:21;;;;;;;5.63;4.45;;;;;;;;;;12952922;22;20687;-76
2022/10/06 03:27:28;;;;;;;5.65;4.40;;;;;;;;;;12951923;22;20008;-76
2022/10/06 03:32:34;;;;;;;5.55;4.57;;;;;;;;;;12928274;22;20015;-77
2022/10/06 03:37:35;;;;;;;7.38;4.63;;;;;;;;;;12952616;22;20028;-78
2022/10/06 03:42:36;;;;;;;4.60;4.18;;;;;;;;;;12979754;22;20039;-77
2022/10/06 03:47:38;;;;;;;5.15;4.13;;;;;;;;;;12952286;22;20020;-78
2022/10/06 03:52:39;;;;;;;7.10;5.55;;;;;;;;;;12951673;22;20011;-78
2022/10/06 03:57:40;;;;;;;6.15;4.97;;;;;;;;;;12951114;22;20090;-78
2022/10/06 04:02:43;;;;;;;6.47;4.97;;;;;;;;;;12979364;22;20485;-77
2022/10/06 04:07:45;;;;;;;6.03;5.13;;;;;;;;;;12951459;22;20026;-77
2022/10/06 04:12:45;;;;;;;7.22;4.88;;;;;;;;;;12923723;22;20027;-77
2022/10/06 04:17:46;;;;;;;5.53;4.97;;;;;;;;;;12956071;22;20081;-76
2022/10/06 04:22:46;;;;;;;6.18;4.57;;;;;;;;;;12958584;22;20023;-74
2022/10/06 04:27:47;;;;;;;6.93;5.28;;;;;;;;;;12958383;22;20050;-75
2022/10/06 04:32:50;;;;;;;5.88;5.18;;;;;;;;;;12984792;22;20046;-77
2022/10/06 04:37:54;;;;;;;6.25;5.22;;;;;;;;;;13033636;22;20004;-78
2022/10/06 04:42:56;;;;;;;6.20;5.03;;;;;;;;;;12998467;22;20032;-78
2022/10/06 04:47:57;;;;;;;5.43;4.78;;;;;;;;;;12969499;22;20086;-77
2022/10/06 04:52:58;;;;;;;5.15;4.43;;;;;;;;;;12953359;22;20015;-77
2022/10/06 04:57:59;;;;;;;4.80;4.13;;;;;;;;;;12978150;22;20454;-76
2022/10/06 05:03:00;;;;;;;6.20;4.72;;;;;;;;;;12950137;22;20044;-77
2022/10/06 05:08:01;;;;;;;6.85;5.22;;;;;;;;;;12952452;22;20309;-78
2022/10/06 05:13:04;;;;;;;6.38;5.25;;;;;;;;;;12951021;22;20070;-78
2022/10/06 05:18:06;;;;;;;6.65;5.38;;;;;;;;;;12951211;22;20074;-76
2022/10/06 05:23:08;;;;;;;6.85;4.85;;;;;;;;;;12951076;22;20012;-77
2022/10/06 05:28:09;;;;;;;7.38;5.78;;;;;;;;;;12925755;22;20016;-76
2022/10/06 05:33:11;;;;;;;5.95;5.30;;;;;;;;;;12925633;22;20704;-78
2022/10/06 05:38:12;;;;;;;7.13;5.70;;;;;;;;;;12955349;22;20531;-77
2022/10/06 05:43:14;;;;;;;7.38;5.60;;;;;;;;;;12952538;22;20023;-79
2022/10/06 05:48:14;;;;;;;7.80;5.72;;;;;;;;;;12984293;22;20015;-76
2022/10/06 05:53:15;;;;;;;7.70;5.10;;;;;;;;;;12957838;22;20685;-79
2022/10/06 05:58:16;;;;;;;9.50;6.15;;;;;;;;;;12982096;22;20026;-77
2022/10/06 06:03:20;;;;;;;7.57;6.07;;;;;;;;;;12985334;22;20131;-77
2022/10/06 06:08:20;;;;;;;10.13;6.93;;;;;;;;;;12954455;22;20039;-76
2022/10/06 06:13:22;;;;;;;9.02;6.32;;;;;;;;;;12928708;22;20019;-77
2022/10/06 06:18:35;;;;;;;8.25;6.43;;;;;;;;;;12982697;22;20173;-76
2022/10/06 06:23:36;;;;;;;;;;;;;;;;;;12953593;22;20019;-77
2022/10/06 06:28:38;;;;;;;8.57;5.72;;;;;;;;;;12981153;22;19907;-78
2022/10/06 06:33:40;;;;;;;9.20;6.20;;;;;;;;;;12955463;22;20020;-77
2022/10/06 06:38:46;;;;;;;8.35;6.43;;;;;;;;;;12957195;22;20031;-79
2022/10/06 06:43:48;;;;;;;9.07;6.03;;;;;;;;;;12953573;22;20039;-77
2022/10/06 06:49:03;;;;;;;9.45;6.88;;;;;;;;;;12955774;22;20095;-79
2022/10/06 06:54:06;;;;;;;9.95;6.70;;;;;;;;;;12953012;22;20334;-78
2022/10/06 06:59:12;;;;;;;10.77;6.55;;;;;;;;;;12927778;22;20089;-76
2022/10/06 07:04:15;;;;;;;9.27;6.97;;;;;;;;;;12953151;22;20018;-77
2022/10/06 07:09:16;;;;;;;10.60;6.50;;;;;;;;;;12925531;22;20008;-77
2022/10/06 07:14:17;;;;;;;9.65;5.80;;;;;;;;;;12952065;22;20024;-77
2022/10/06 07:30:05;;;;;;;7.53;5.18;;;;;;;;;;12996258;22;20018;-77
2022/10/06 07:35:06;;;;;;;7.03;4.80;;;;;;;;;;13027290;22;20007;-79
2022/10/06 07:40:08;;;;;;;22.77;13.27;;;;;;;;;;12955921;22;20456;-79
2022/10/06 07:50:29;;;;;;;3.28;2.90;;;;;;;;;;12964691;22;20043;-78
2022/10/06 07:55:31;;;;;;;4.30;3.60;;;;;;;;;;12930889;22;20011;-78
2022/10/06 08:01:07;;;;;;;5.25;4.00;;;;;;;;;;12949103;22;20038;-76
2022/10/06 08:06:12;;;;;;;5.13;3.08;;;;;;;;;;12977763;22;20424;-75
2022/10/06 08:11:13;;;;;;;3.92;2.50;;;;;;;;;;12949363;22;20072;-76
2022/10/06 08:16:16;;;;;;;3.90;2.47;;;;;;;;;;12978986;22;20007;-75
2022/10/06 08:21:18;;;;;;;3.38;2.10;;;;;;;;;;12950501;22;20024;-76
2022/10/06 08:26:19;;;;;;;4.45;2.08;;;;;;;;;;12947920;22;20020;-76
2022/10/06 08:31:21;;;;;;;4.68;2.30;;;;;;;;;;12974213;22;20688;-76
2022/10/06 08:36:22;;;;;;;2.22;1.83;;;;;;;;;;12973200;22;20333;-77
2022/10/06 08:41:27;;;;;;;3.10;2.40;;;;;;;;;;12973737;22;20019;-76
2022/10/06 08:46:31;;;;;;;4.65;2.20;;;;;;;;;;12967788;22;20018;-75
2022/10/06 08:51:32;;;;;;;3.08;1.75;;;;;;;;;;12926393;22;20027;-75
2022/10/06 08:56:35;;;;;;;5.03;2.17;;;;;;;;;;12978387;22;20003;-75
2022/10/06 09:01:50;;;;;;;2.42;1.63;;;;;;;;;;12925232;22;20270;-75
2022/10/06 09:06:50;;;;;;;2.78;1.80;;;;;;;;;;12950446;22;20065;-77
2022/10/06 09:11:59;;;;;;;2.80;1.60;;;;;;;;;;12978274;22;20324;-78
2022/10/06 09:17:01;;;;;;;3.20;1.77;;;;;;;;;;12977504;22;20273;-77
2022/10/06 09:22:04;;;;;;;3.10;1.77;;;;;;;;;;12951026;22;20014;-79
2022/10/06 09:27:21;;;;;;;6.97;2.00;;;;;;;;;;12976840;22;20011;-77
2022/10/06 09:32:25;;;;;;;3.45;1.95;;;;;;;;;;12980705;22;20008;-78
2022/10/06 09:37:25;;;;;;;5.22;1.70;;;;;;;;;;12981998;22;20023;-78
2022/10/06 09:42:28;;;;;;;2.03;1.83;;;;;;;;;;12957702;22;20065;-78
2022/10/06 09:47:33;;;;;;;3.83;1.83;;;;;;;;;;12994692;22;20027;-78
2022/10/06 09:52:35;;;;;;;2.58;2.00;;;;;;;;;;12999106;22;20018;-77
2022/10/06 09:57:36;;;;;;;3.38;1.88;;;;;;;;;;12987245;22;20022;-79
2022/10/06 10:02:37;;;;;;;3.88;1.67;;;;;;;;;;13017705;22;20014;-78
2022/10/06 10:07:37;;;;;;;4.72;1.90;;;;;;;;;;12998344;22;20018;-76
2022/10/06 10:12:47;;;;;;;2.22;1.42;;;;;;;;;;12977711;22;20018;-77
2022/10/06 10:17:55;;;;;;;3.95;1.48;;;;;;;;;;13004133;22;20023;-77
2022/10/06 10:22:58;;;;;;;4.13;1.60;;;;;;;;;;13002526;22;19996;-77
2022/10/06 10:28:18;;;;;;;3.88;1.38;;;;;;;;;;13029734;22;20011;-76
2022/10/06 10:33:25;;;;;;;4.10;1.52;;;;;;;;;;13008438;22;20007;-77
2022/10/06 10:38:27;;;;;;;2.83;1.45;;;;;;;;;;13012785;22;20019;-80
2022/10/06 10:43:48;;;;;;;2.83;1.63;;;;;;;;;;13036482;22;19996;-78
2022/10/06 10:49:02;;;;;;;4.28;1.40;;;;;;;;;;13046483;22;20038;-80
2022/10/06 10:54:07;;;;;;;1.90;1.20;;;;;;;;;;13042676;22;20083;-78
2022/10/06 10:59:18;;;;;;;2.75;1.20;;;;;;;;;;13010389;22;20031;-78
2022/10/06 11:04:20;;;;;;;3.80;1.40;;;;;;;;;;12989046;22;20011;-78
2022/10/06 11:09:21;;;;;;;1.88;1.20;;;;;;;;;;12984037;22;20052;-80
2022/10/06 11:14:40;;;;;;;1.42;1.10;;;;;;;;;;12980679;22;20003;-78
2022/10/06 11:19:59;;;;;;;2.47;1.30;;;;;;;;;;12952779;22;20684;-77
2022/10/06 11:25:21;;;;;;;3.03;1.45;;;;;;;;;;12983092;22;20030;-77
2022/10/06 11:30:25;;;;;;;3.38;1.40;;;;;;;;;;12988571;22;20034;-78
2022/10/06 11:35:27;;;;;;;2.72;1.35;;;;;;;;;;12958522;22;20575;-77
2022/10/06 11:40:40;;;;;;;2.53;1.10;;;;;;;;;;12950995;22;20087;-79
2022/10/06 11:45:58;;;;;;;2.88;1.45;;;;;;;;;;12925420;22;20528;-77
2022/10/06 11:51:20;;;;;;;2.75;1.40;;;;;;;;;;12980246;22;20066;-78
2022/10/06 11:56:40;;;;;;;4.28;1.30;;;;;;;;;;12926532;22;20310;-79
2022/10/06 12:01:44;;;;;;;3.88;1.65;;;;;;;;;;12849231;23;20099;-78
2022/10/06 12:06:44;;;;;;;1.90;1.33;;;;;;;;;;12851174;23;20111;-84
2022/10/06 12:11:45;;;;;;;3.80;1.05;;;;;;;;;;12850658;23;20094;-82
2022/10/06 12:16:46;;;;;;;2.93;1.60;;;;;;;;;;12849272;23;20021;-80
2022/10/06 12:22:07;;;;;;;1.77;1.10;;;;;;;;;;12848370;23;20244;-80
2022/10/06 12:27:26;;;;;;;2.03;1.40;;;;;;;;;;12803878;23;20020;-83
2022/10/06 12:32:31;;;;;;;4.35;1.45;;;;;;;;;;12946564;22;20019;-81
2022/10/06 12:37:33;;;;;;;5.72;1.30;;;;;;;;;;12957855;22;20015;-80
2022/10/06 12:42:34;;;;;;;2.05;1.20;;;;;;;;;;12983421;22;20496;-80
2022/10/06 12:47:39;;;;;;;2.13;1.15;;;;;;;;;;12956274;22;20016;-80
2022/10/06 12:52:52;;;;;;;3.15;1.10;;;;;;;;;;12983438;22;20010;-80
2022/10/06 12:57:54;;;;;;;2.20;1.08;;;;;;;;;;12983419;22;20024;-85
2022/10/06 13:02:57;;;;;;;2.35;1.30;;;;;;;;;;12930958;22;20020;-82
2022/10/06 13:07:57;;;;;;;;;;;;;;;;;;12999312;22;20002;-81
2022/10/06 13:13:00;;;;;;;3.08;1.20;;;;;;;;;;12996731;22;19896;-81
2022/10/06 13:18:00;;;;;;;;;;;;;;;;;;13009113;22;20012;-82
2022/10/06 13:23:21;;;;;;;1.92;1.17;;;;;;;;;;13008215;22;19917;-82
2022/10/06 13:28:23;;;;;;;2.95;1.13;;;;;;;;;;12990085;22;20070;-82
2022/10/06 13:33:37;;;;;;;3.50;1.20;;;;;;;;;;12982087;22;20020;-82
2022/10/06 13:38:40;;;;;;;3.22;1.00;;;;;;;;;;12959102;22;20026;-83
2022/10/06 13:43:42;;;;;;;2.55;0.95;;;;;;;;;;12984615;22;20081;-82
2022/10/06 13:48:47;;;;;;;3.03;1.07;;;;;;;;;;12956361;22;20660;-82
2022/10/06 13:53:49;;;;;;;3.88;1.90;;;;;;;;;;12988551;22;20011;-82
2022/10/06 13:59:32;;;;;;;2.70;1.05;;;;;;;;;;12995329;22;20107;-82
2022/10/06 14:04:37;;;;;;;3.22;1.10;;;;;;;;;;13034367;22;20003;-85
2022/10/06 14:09:39;;;;;;;2.60;1.00;;;;;;;;;;13016140;22;20000;-82
2022/10/06 14:14:48;;;;;;;3.22;1.10;;;;;;;;;;13033475;22;20289;-82
2022/10/06 14:19:50;;;;;;;5.30;1.38;;;;;;;;;;12957046;22;20027;-81
2022/10/06 14:24:51;;;;;;;3.80;1.33;;;;;;;;;;12985160;22;20003;-82
2022/10/06 14:29:51;;;;;;;2.72;1.00;;;;;;;;;;12961562;22;20027;-81
2022/10/06 14:34:52;;;;;;;2.33;1.40;;;;;;;;;;12966562;22;20015;-82
2022/10/06 14:39:54;;;;;;;3.05;1.00;;;;;;;;;;12986778;22;20118;-83
2022/10/06 14:44:58;;;;;;;2.28;1.00;;;;;;;;;;12984829;22;20015;-82
2022/10/06 14:49:58;;;;;;;2.80;1.30;;;;;;;;;;12962057;22;20058;-83
2022/10/06 14:54:59;;;;;;;2.63;1.30;;;;;;;;;;12987269;22;20012;-84
2022/10/06 14:59:59;;;;;;;2.55;1.20;;;;;;;;;;12970516;22;20024;-84
2022/10/06 15:05:03;;;;;;;2.28;1.38;;;;;;;;;;12983320;22;20036;-86
2022/10/06 15:10:04;;;;;;;3.75;1.33;;;;;;;;;;13005330;22;20095;-84
2022/10/06 15:15:11;;;;;;;4.53;1.83;;;;;;;;;;12987748;22;20042;-80
2022/10/06 15:20:16;;;;;;;2.65;1.02;;;;;;;;;;12988480;22;20023;-78
2022/10/06 15:30:38;;;;;;;3.13;1.20;;;;;;;;;;13009496;22;20008;-81
2022/10/06 15:36:16;;;;;;;2.40;0.93;;;;;;;;;;13039182;22;20012;-79
2022/10/06 15:41:27;;;;;;;3.60;1.63;;;;;;;;;;12964840;22;20020;-80
2022/10/06 15:46:35;;;;;;;4.53;1.38;;;;;;;;;;12983576;22;20024;-78
2022/10/06 15:51:41;;;;;;;4.10;1.88;;;;;;;;;;12996370;22;20016;-80
2022/10/06 15:56:48;;;;;;;1.40;1.00;;;;;;;;;;12987437;22;20046;-80
2022/10/06 16:01:54;;;;;;;3.15;1.23;;;;;;;;;;13010275;22;20026;-79
2022/10/06 16:06:56;;;;;;;2.20;1.35;;;;;;;;;;12998389;22;20109;-80
2022/10/06 16:12:01;;;;;;;4.53;2.37;;;;;;;;;;12987478;22;20012;-79
2022/10/06 16:17:05;;;;;;;2.63;1.48;;;;;;;;;;12994684;22;20031;-79
2022/10/06 16:22:07;;;;;;;3.78;1.98;;;;;;;;;;12957191;22;20024;-80
2022/10/06 16:27:13;;;;;;;4.45;2.50;;;;;;;;;;12985745;22;20012;-80
2022/10/06 16:32:14;;;;;;;5.63;3.28;;;;;;;;;;12980442;22;20015;-81
2022/10/06 16:37:15;;;;;;;5.80;3.00;;;;;;;;;;12959113;22;20022;-81
2022/10/06 16:42:16;;;;;;;3.58;2.60;;;;;;;;;;12955994;22;20110;-79
2022/10/06 16:47:17;;;;;;;4.55;2.42;;;;;;;;;;12953141;22;20039;-79
2022/10/06 16:52:18;;;;;;;4.40;2.47;;;;;;;;;;12952064;22;20023;-78
2022/10/06 16:57:19;;;;;;;4.00;2.47;;;;;;;;;;12982173;22;20019;-78
2022/10/06 17:02:19;;;;;;;5.10;2.90;;;;;;;;;;12991827;22;20712;-78
2022/10/06 17:07:20;;;;;;;3.80;2.67;;;;;;;;;;13009103;22;20278;-79
2022/10/06 17:12:20;;;;;;;5.97;3.20;;;;;;;;;;13020394;22;20277;-80
2022/10/06 17:17:30;;;;;;;7.00;4.40;;;;;;;;;;13010010;22;20014;-80
2022/10/06 17:22:32;;;;;;;6.38;4.10;;;;;;;;;;13001935;22;20007;-78
2022/10/06 17:27:35;;;;;;;7.43;4.47;;;;;;;;;;13008708;22;20019;-79
2022/10/06 17:32:36;;;;;;;5.70;3.67;;;;;;;;;;13009658;22;20000;-80
2022/10/06 17:37:40;;;;;;;4.90;2.85;;;;;;;;;;13040854;22;20059;-79
2022/10/06 17:42:41;;;;;;;5.30;3.28;;;;;;;;;;13041990;22;20026;-80
2022/10/06 17:47:42;;;;;;;4.07;2.83;;;;;;;;;;13007042;22;19996;-79
2022/10/06 17:52:44;;;;;;;5.60;2.88;;;;;;;;;;13036869;22;20018;-79
2022/10/06 17:57:45;;;;;;;5.68;2.80;;;;;;;;;;13041023;22;20031;-78
2022/10/06 18:02:45;;;;;;;3.90;2.80;;;;;;;;;;13034861;22;20026;-81
2022/10/06 18:07:46;;;;;;;5.20;3.28;;;;;;;;;;13038442;22;20254;-80
2022/10/06 18:12:49;;;;;;;7.88;3.40;;;;;;;;;;13003572;22;20305;-81
2022/10/06 18:17:51;;;;;;;7.75;3.53;;;;;;;;;;12962989;22;20040;-77
2022/10/06 18:22:52;;;;;;;9.27;5.53;;;;;;;;;;12953542;22;20039;-77
2022/10/06 18:27:52;;;;;;;9.40;5.75;;;;;;;;;;12979929;22;20012;-77
2022/10/06 18:32:53;;;;;;;10.40;6.53;;;;;;;;;;12927766;22;20015;-76
2022/10/06 18:37:54;;;;;;;10.57;5.05;;;;;;;;;;12980040;22;20024;-80
2022/10/06 18:42:54;;;;;;;9.27;5.13;;;;;;;;;;12961465;22;20016;-80
2022/10/06 18:53:18;;;;;;;8.50;4.88;;;;;;;;;;13033734;22;20023;-79
2022/10/06 18:58:19;;;;;;;9.52;4.93;;;;;;;;;;12968679;22;20464;-84
2022/10/06 19:03:21;;;;;;;6.70;4.40;;;;;;;;;;12984735;22;20007;-80
2022/10/06 19:08:22;;;;;;;7.40;4.60;;;;;;;;;;12956795;22;20019;-78
2022/10/06 19:13:24;;;;;;;8.63;5.63;;;;;;;;;;12984580;22;20525;-81
2022/10/06 19:18:39;;;;;;;10.82;6.50;;;;;;;;;;12994733;22;20012;-78
2022/10/06 19:23:39;;;;;;;7.25;5.75;;;;;;;;;;12932567;22;20130;-78
2022/10/06 19:28:41;;;;;;;9.07;5.50;;;;;;;;;;12981275;22;20111;-78
2022/10/06 19:33:42;;;;;;;7.47;4.82;;;;;;;;;;12953323;22;20792;-79
2022/10/06 19:38:46;;;;;;;7.75;4.80;;;;;;;;;;12967803;22;20098;-79
2022/10/06 19:43:47;;;;;;;6.57;4.80;;;;;;;;;;12951286;22;20028;-83
2022/10/06 19:48:53;;;;;;;9.10;5.72;;;;;;;;;;12981232;22;20015;-80
2022/10/06 19:53:53;;;;;;;8.45;5.45;;;;;;;;;;12980826;22;20012;-77
2022/10/06 19:58:57;;;;;;;10.93;6.97;;;;;;;;;;12979208;22;20020;-78
2022/10/06 20:03:58;;;;;;;7.45;5.45;;;;;;;;;;12984773;22;20311;-80
2022/10/06 20:09:04;;;;;;;7.35;6.20;;;;;;;;;;12930194;22;20004;-80
2022/10/06 20:14:09;;;;;;;6.90;4.63;;;;;;;;;;12983442;22;20437;-81
2022/10/06 20:19:11;;;;;;;7.22;4.90;;;;;;;;;;13010828;22;20014;-81
2022/10/06 20:24:13;;;;;;;7.88;5.50;;;;;;;;;;13029068;22;20003;-79
2022/10/06 20:29:15;;;;;;;6.97;4.77;;;;;;;;;;13004108;22;20012;-82
2022/10/06 20:34:20;;;;;;;7.43;4.50;;;;;;;;;;12995619;22;20011;-80
2022/10/06 20:44:41;;;;;;;7.85;5.55;;;;;;;;;;12954508;22;20783;-83
2022/10/06 20:49:43;;;;;;;8.02;5.68;;;;;;;;;;12954604;22;20022;-79
2022/10/06 20:54:43;;;;;;;8.02;5.28;;;;;;;;;;12980252;22;20039;-80
2022/10/06 20:59:48;;;;;;;7.22;5.15;;;;;;;;;;12991578;22;20020;-83
2022/10/06 21:04:49;;;;;;;11.45;5.30;;;;;;;;;;13007086;22;20012;-80
2022/10/06 21:09:50;;;;;;;8.23;5.22;;;;;;;;;;13012431;22;20011;-81
2022/10/06 21:14:50;;;;;;;6.83;5.27;;;;;;;;;;13013315;22;20090;-79
2022/10/06 21:19:52;;;;;;;9.50;5.43;;;;;;;;;;13001268;22;20293;-83
2022/10/06 21:24:55;;;;;;;7.55;5.05;;;;;;;;;;13031384;22;20038;-81
2022/10/06 21:29:55;;;;;;;8.55;4.72;;;;;;;;;;13000810;22;20343;-81
2022/10/06 21:34:58;;;;;;;7.50;5.45;;;;;;;;;;13030224;22;19998;-80
2022/10/06 21:40:01;;;;;;;6.05;4.90;;;;;;;;;;13010571;22;20079;-79
2022/10/06 21:45:02;;;;;;;7.13;4.57;;;;;;;;;;12999763;22;20011;-81
2022/10/06 21:50:05;;;;;;;6.05;4.50;;;;;;;;;;12988962;22;20018;-82
2022/10/06 21:55:06;;;;;;;6.75;4.05;;;;;;;;;;12929528;22;20329;-81
2022/10/06 22:00:09;;;;;;;8.75;4.88;;;;;;;;;;12987933;22;20102;-81
2022/10/06 22:05:13;;;;;;;5.40;4.10;;;;;;;;;;12983418;22;20012;-80
2022/10/06 22:10:14;;;;;;;5.10;4.30;;;;;;;;;;12982526;22;20016;-80
2022/10/06 22:15:20;;;;;;;5.38;4.03;;;;;;;;;;12980993;22;20070;-80
2022/10/06 22:20:28;;;;;;;6.13;3.70;;;;;;;;;;12953555;22;20478;-78
2022/10/06 22:25:29;;;;;;;7.78;4.03;;;;;;;;;;12970195;22;20016;-81
2022/10/06 22:30:31;;;;;;;6.63;3.88;;;;;;;;;;12987216;22;20011;-79
2022/10/06 22:35:33;;;;;;;5.47;3.88;;;;;;;;;;13008564;22;19992;-79
2022/10/06 22:40:33;;;;;;;8.25;3.92;;;;;;;;;;13012313;22;20023;-82
2022/10/06 22:45:35;;;;;;;4.83;4.00;;;;;;;;;;13016746;22;20012;-81
2022/10/06 22:50:35;;;;;;;6.43;3.92;;;;;;;;;;12989319;22;20055;-82
2022/10/06 22:55:38;;;;;;;6.60;4.30;;;;;;;;;;12983577;22;20012;-79
2022/10/06 23:00:39;;;;;;;8.13;4.20;;;;;;;;;;13017894;22;20086;-80
2022/10/06 23:05:40;;;;;;;9.02;4.80;;;;;;;;;;12991692;22;20008;-79
2022/10/06 23:10:40;;;;;;;7.35;4.72;;;;;;;;;;12980097;22;20008;-80
2022/10/06 23:15:40;;;;;;;7.77;4.60;;;;;;;;;;12981224;22;20813;-80
2022/10/06 23:20:41;;;;;;;7.00;4.60;;;;;;;;;;12952638;22;20618;-79
2022/10/06 23:25:44;;;;;;;7.13;4.60;;;;;;;;;;12955873;22;20012;-80
2022/10/06 23:30:46;;;;;;;6.97;4.63;;;;;;;;;;13016779;22;20257;-81
2022/10/06 23:35:56;;;;;;;6.05;5.00;;;;;;;;;;13020222;22;20000;-80
2022/10/06 23:40:56;;;;;;;5.78;4.00;;;;;;;;;;13015619;22;20085;-80
2022/10/06 23:45:57;;;;;;;8.07;4.53;;;;;;;;;;12979447;22;20565;-81
2022/10/06 23:51:02;;;;;;;6.75;4.97;;;;;;;;;;12978169;22;20026;-80
2022/10/06 23:56:05;;;;;;;5.68;4.00;;;;;;;;;;12978506;22;20016;-80
